Time,TemperatureF,DewpointF,PressureIn,WindDirection,WindDirectionDegrees,WindSpeedMPH,WindSpeedGustMPH,Humidity,HourlyPrecipIn,Conditions,Clouds,dailyrainin,SoftwareType,DateUTC
2013-04-01 08:07:00,45.5,41.9,29.74,West,279,6.4,6.4,87,0.04,,---,0.00,VWS V14.01,2013-04-01 12:07:00,
2013-04-01 08:08:00,45.5,41.9,29.74,SW,230,7.9,7.9,87,0.00,,---,0.00,VWS V14.01,2013-04-01 12:08:00,
2013-04-01 08:09:00,45.5,41.9,29.74,West,269,4.3,7.9,87,0.00,,---,0.00,VWS V14.01,2013-04-01 12:09:00,
2013-04-01 08:10:00,45.5,41.9,29.74,WSW,251,8.6,8.6,87,0.00,,---,0.00,VWS V14.01,2013-04-01 12:10:00,
2013-04-01 08:15:00,45.9,42.2,29.74,WSW,239,8.6,9.3,87,0.00,,---,0.00,VWS V14.01,2013-04-01 12:15:00,
2013-04-01 08:21:00,46.0,42.4,29.74,SSW,199,4.3,5.0,87,0.00,,---,0.00,VWS V14.01,2013-04-01 12:21:00,
2013-04-01 08:27:00,46.2,42.6,29.74,SW,233,6.4,9.3,87,0.00,,---,0.00,VWS V14.01,2013-04-01 12:27:00,
2013-04-01 08:33:00,46.4,42.8,29.74,SW,223,9.3,9.3,87,0.00,,---,0.00,VWS V14.01,2013-04-01 12:33:00,
2013-04-01 08:39:00,46.6,42.9,29.74,SSW,206,5.0,5.0,87,0.00,,---,0.00,VWS V14.01,2013-04-01 12:39:00,
2013-04-01 08:45:00,46.6,42.9,29.74,WSW,256,0.0,5.0,87,0.00,,---,0.00,VWS V14.01,2013-04-01 12:45:00,
2013-04-01 08:50:00,46.6,42.9,29.74,SW,230,11.5,11.5,87,0.00,,---,0.00,VWS V14.01,2013-04-01 12:50:00,
2013-04-01 08:56:00,46.6,42.9,29.74,West,259,7.9,7.9,87,0.00,,---,0.00,VWS V14.01,2013-04-01 12:56:00,
2013-04-01 09:01:00,46.6,42.9,29.74,West,260,6.4,6.4,87,0.00,,---,0.00,VWS V14.01,2013-04-01 13:01:00,
2013-04-01 09:08:00,46.6,42.9,29.74,SSW,197,5.7,5.7,87,0.00,,---,0.00,VWS V14.01,2013-04-01 13:08:00,
2013-04-01 09:13:00,46.6,42.9,29.74,SW,221,5.7,5.7,87,0.00,,---,0.00,VWS V14.01,2013-04-01 13:13:00,
2013-04-01 09:18:00,46.6,42.9,29.74,WSW,249,9.3,9.3,87,0.00,,---,0.00,VWS V14.01,2013-04-01 13:18:00,
2013-04-01 09:24:00,46.6,42.9,29.74,West,268,0.0,0.0,87,0.00,,---,0.00,VWS V14.01,2013-04-01 13:24:00,
2013-04-01 09:30:00,46.6,42.9,29.74,West,260,6.4,6.4,87,0.00,,---,0.00,VWS V14.01,2013-04-01 13:30:00,
2013-04-01 09:35:00,46.6,42.9,29.74,West,260,6.4,6.4,87,0.00,,---,0.00,VWS V14.01,2013-04-01 13:35:00,
2013-04-01 09:41:00,46.6,42.9,29.74,West,274,8.6,8.6,87,0.00,,---,0.00,VWS V14.01,2013-04-01 13:41:00,
2013-04-01 09:46:00,46.6,42.9,29.74,WSW,258,5.7,5.7,87,0.00,,---,0.00,VWS V14.01,2013-04-01 13:46:00,
2013-04-01 09:52:00,46.6,42.9,29.74,SSW,202,12.2,12.2,87,0.00,,---,0.00,VWS V14.01,2013-04-01 13:52:00,
2013-04-01 09:58:00,46.6,42.9,29.74,SW,235,6.4,6.4,87,0.00,,---,0.00,VWS V14.01,2013-04-01 13:58:00,
2013-04-01 10:03:00,46.6,42.9,29.74,West,273,9.3,9.3,87,0.00,,---,0.00,VWS V14.01,2013-04-01 14:03:00,
2013-04-01 10:09:00,46.6,42.9,29.74,WSW,256,7.9,7.9,87,0.00,,---,0.00,VWS V14.01,2013-04-01 14:09:00,
2013-04-01 10:14:00,46.6,42.9,29.74,NW,314,10.0,10.0,87,0.00,,---,0.00,VWS V14.01,2013-04-01 14:14:00,
2013-04-01 10:20:00,46.6,42.9,29.74,WSW,238,5.0,5.0,87,0.00,,---,0.00,VWS V14.01,2013-04-01 14:20:00,
2013-04-01 10:25:00,46.6,42.9,29.74,West,280,11.5,11.5,87,0.00,,---,0.00,VWS V14.01,2013-04-01 14:25:00,
2013-04-01 10:31:00,46.6,42.9,29.74,WNW,300,6.4,6.4,87,0.00,,---,0.00,VWS V14.01,2013-04-01 14:31:00,
2013-04-01 10:36:00,46.6,42.9,29.74,WNW,287,12.9,12.9,87,0.00,,---,0.00,VWS V14.01,2013-04-01 14:36:00,
2013-04-01 10:41:00,46.6,42.9,29.74,WSW,244,10.0,10.0,87,0.00,,---,0.00,VWS V14.01,2013-04-01 14:41:00,
2013-04-01 10:47:00,46.6,42.9,29.74,SW,228,14.0,14.0,87,0.00,,---,0.00,VWS V14.01,2013-04-01 14:47:00,
2013-04-01 10:52:00,46.6,42.9,29.74,SW,228,14.0,14.0,87,0.00,,---,0.00,VWS V14.01,2013-04-01 14:52:00,
2013-04-01 10:58:00,46.6,42.9,29.74,SW,235,10.0,10.0,87,0.00,,---,0.00,VWS V14.01,2013-04-01 14:58:00,
2013-04-01 11:03:00,46.6,42.9,29.74,SW,229,14.0,14.0,87,0.00,,---,0.00,VWS V14.01,2013-04-01 15:03:00,
2013-04-01 11:09:00,46.6,42.9,29.74,WSW,244,5.7,5.7,87,0.00,,---,0.00,VWS V14.01,2013-04-01 15:09:00,
2013-04-01 11:14:00,46.6,42.9,29.74,SSW,208,8.6,8.6,87,0.00,,---,0.00,VWS V14.01,2013-04-01 15:14:00,
2013-04-01 11:20:00,46.6,42.9,29.74,WSW,256,15.4,16.1,87,0.00,,---,0.00,VWS V14.01,2013-04-01 15:20:00,
2013-04-01 11:26:00,46.6,42.9,29.74,WSW,256,15.4,15.4,87,0.00,,---,0.00,VWS V14.01,2013-04-01 15:26:00,
2013-04-01 11:31:00,46.6,42.9,29.74,WSW,253,9.3,9.3,87,0.04,,---,0.04,VWS V14.01,2013-04-01 15:31:00,
2013-04-01 11:36:00,46.6,42.9,29.74,West,279,27.2,27.2,87,0.04,,---,0.04,VWS V14.01,2013-04-01 15:36:00,
2013-04-01 11:42:00,46.6,42.9,29.74,WSW,255,21.1,21.1,87,0.04,,---,0.04,VWS V14.01,2013-04-01 15:42:00,
2013-04-01 11:48:00,46.6,42.9,29.74,SW,231,16.1,17.5,87,0.04,,---,0.04,VWS V14.01,2013-04-01 15:48:00,
2013-04-01 11:54:00,46.6,42.9,29.74,SW,217,16.1,16.1,87,0.04,,---,0.04,VWS V14.01,2013-04-01 15:54:00,
2013-04-01 11:59:00,46.6,42.9,29.74,West,260,19.7,19.7,87,0.04,,---,0.04,VWS V14.01,2013-04-01 15:59:00,
2013-04-01 12:05:00,46.6,42.9,29.74,SSW,200,16.1,16.1,87,0.04,,---,0.04,VWS V14.01,2013-04-01 16:05:00,
2013-04-01 12:11:00,46.6,42.9,29.74,SSW,211,19.0,19.0,87,0.04,,---,0.04,VWS V14.01,2013-04-01 16:11:00,
2013-04-01 12:16:00,46.6,42.9,29.74,WNW,291,12.9,12.9,87,0.04,,---,0.04,VWS V14.01,2013-04-01 16:16:00,
2013-04-01 12:22:00,46.6,42.9,29.74,SW,225,16.8,16.8,87,0.04,,---,0.04,VWS V14.01,2013-04-01 16:22:00,
2013-04-01 12:27:00,46.6,42.9,29.74,WSW,244,16.8,16.8,87,0.04,,---,0.04,VWS V14.01,2013-04-01 16:27:00,
2013-04-01 12:33:00,46.6,42.9,29.74,WSW,237,21.1,21.1,87,0.00,,---,0.04,VWS V14.01,2013-04-01 16:33:00,
2013-04-01 12:39:00,46.6,42.9,29.74,SW,234,14.0,14.0,87,0.00,,---,0.04,VWS V14.01,2013-04-01 16:39:00,
2013-04-01 12:44:00,46.6,42.9,29.74,SW,234,14.0,14.0,87,0.00,,---,0.04,VWS V14.01,2013-04-01 16:44:00,
2013-04-01 12:49:00,46.6,42.9,29.74,West,265,16.1,16.1,87,0.00,,---,0.04,VWS V14.01,2013-04-01 16:49:00,
2013-04-01 12:54:00,46.6,42.9,29.74,WSW,249,15.4,15.4,87,0.00,,---,0.04,VWS V14.01,2013-04-01 16:54:00,
2013-04-01 13:00:00,46.6,42.9,29.74,SSW,211,13.2,13.2,87,0.00,,---,0.04,VWS V14.01,2013-04-01 17:00:00,
2013-04-01 13:05:00,46.6,42.9,29.74,WSW,254,10.0,10.0,87,0.00,,---,0.04,VWS V14.01,2013-04-01 17:05:00,
2013-04-01 13:11:00,46.6,42.9,29.74,West,274,13.2,13.2,87,0.00,,---,0.04,VWS V14.01,2013-04-01 17:11:00,
2013-04-01 13:16:00,46.6,42.9,29.74,WSW,252,22.5,22.5,87,0.00,,---,0.04,VWS V14.01,2013-04-01 17:16:00,
2013-04-01 13:22:00,46.6,42.9,29.74,SW,231,28.6,28.6,87,0.00,,---,0.04,VWS V14.01,2013-04-01 17:22:00,
2013-04-01 13:27:00,46.6,42.9,29.74,WSW,244,19.7,19.7,87,0.00,,---,0.04,VWS V14.01,2013-04-01 17:27:00,
2013-04-01 13:33:00,46.6,42.9,29.74,WNW,289,18.3,18.3,87,0.00,,---,0.04,VWS V14.01,2013-04-01 17:33:00,
2013-04-01 13:39:00,46.6,42.9,29.74,West,272,17.5,17.5,87,0.00,,---,0.04,VWS V14.01,2013-04-01 17:39:00,
2013-04-01 13:44:00,46.6,42.9,29.65,SW,224,19.0,19.0,87,0.00,,---,0.04,VWS V14.01,2013-04-01 17:44:00,
2013-04-01 13:50:00,46.6,42.9,29.65,West,261,15.4,15.4,87,0.00,,---,0.04,VWS V14.01,2013-04-01 17:50:00,
2013-04-01 13:56:00,46.6,42.9,29.65,West,261,15.4,15.4,87,0.00,,---,0.04,VWS V14.01,2013-04-01 17:56:00,
2013-04-01 14:01:00,64.2,23.5,29.65,West,261,15.4,15.4,21,0.00,,---,0.04,VWS V14.01,2013-04-01 18:01:00,
2013-04-01 14:07:00,64.2,23.5,29.65,West,263,21.1,21.1,21,0.00,,---,0.04,VWS V14.01,2013-04-01 18:07:00,
2013-04-01 14:12:00,64.2,23.5,29.65,WNW,286,20.4,20.4,21,0.00,,---,0.04,VWS V14.01,2013-04-01 18:12:00,
2013-04-01 14:18:00,64.8,22.8,29.65,SW,235,17.5,17.5,20,0.00,,---,0.04,VWS V14.01,2013-04-01 18:18:00,
2013-04-01 14:24:00,64.2,23.5,29.65,SW,235,17.5,17.5,21,0.00,,---,0.04,VWS V14.01,2013-04-01 18:24:00,
2013-04-01 14:29:00,64.2,23.5,29.65,SW,235,17.5,17.5,21,0.00,,---,0.04,VWS V14.01,2013-04-01 18:29:00,
2013-04-01 14:35:00,63.7,23.0,29.65,SW,235,17.5,17.5,21,0.00,,---,0.04,VWS V14.01,2013-04-01 18:35:00,
2013-04-01 14:41:00,63.7,23.0,29.65,SW,235,17.5,17.5,21,0.00,,---,0.04,VWS V14.01,2013-04-01 18:41:00,
2013-04-01 14:46:00,63.7,23.0,29.65,SW,235,17.5,17.5,21,0.00,,---,0.04,VWS V14.01,2013-04-01 18:46:00,
2013-04-01 14:52:00,64.4,22.5,29.65,SW,235,17.5,17.5,20,0.00,,---,0.04,VWS V14.01,2013-04-01 18:52:00,
2013-04-01 14:57:00,64.8,22.8,29.65,SW,235,17.5,17.5,20,0.00,,---,0.04,VWS V14.01,2013-04-01 18:57:00,
2013-04-01 15:02:00,64.6,22.6,29.65,SW,235,17.5,17.5,20,0.00,,---,0.04,VWS V14.01,2013-04-01 19:02:00,
2013-04-01 15:08:00,63.7,23.0,29.65,SW,235,17.5,17.5,21,0.00,,---,0.04,VWS V14.01,2013-04-01 19:08:00,
2013-04-01 15:14:00,63.7,23.0,29.65,SW,235,17.5,17.5,21,0.00,,---,0.04,VWS V14.01,2013-04-01 19:14:00,
2013-04-01 15:20:00,63.9,23.2,29.65,SW,235,17.5,17.5,21,0.00,,---,0.04,VWS V14.01,2013-04-01 19:20:00,
2013-04-01 15:25:00,63.7,23.0,29.65,SW,235,17.5,17.5,21,0.00,,---,0.04,VWS V14.01,2013-04-01 19:25:00,
2013-04-01 15:31:00,63.7,23.0,29.65,SW,235,17.5,17.5,21,0.00,,---,0.04,VWS V14.01,2013-04-01 19:31:00,
2013-04-01 15:36:00,63.0,22.5,29.65,SW,235,17.5,17.5,21,0.00,,---,0.04,VWS V14.01,2013-04-01 19:36:00,
2013-04-01 15:42:00,62.1,21.7,29.65,SW,235,17.5,17.5,21,0.00,,---,0.04,VWS V14.01,2013-04-01 19:42:00,
2013-04-01 15:47:00,61.9,21.5,29.65,SW,235,17.5,17.5,21,0.00,,---,0.04,VWS V14.01,2013-04-01 19:47:00,
2013-04-01 15:52:00,61.5,21.2,29.65,SW,235,17.5,17.5,21,0.00,,---,0.04,VWS V14.01,2013-04-01 19:52:00,
2013-04-01 15:57:00,61.5,21.2,29.65,SW,235,17.5,17.5,21,0.00,,---,0.04,VWS V14.01,2013-04-01 19:57:00,
2013-04-01 16:03:00,60.6,21.6,29.68,WSW,255,14.0,14.0,22,0.00,,---,0.04,VWS V14.01,2013-04-01 20:03:00,
2013-04-01 16:09:00,59.4,20.5,29.68,WSW,255,14.0,14.0,22,0.00,,---,0.04,VWS V14.01,2013-04-01 20:09:00,
2013-04-01 16:14:00,59.4,20.5,29.68,WSW,255,14.0,14.0,22,0.00,,---,0.04,VWS V14.01,2013-04-01 20:14:00,
2013-04-01 16:20:00,59.4,20.5,29.68,WSW,255,14.0,14.0,22,0.00,,---,0.04,VWS V14.01,2013-04-01 20:20:00,
2013-04-01 16:25:00,57.6,19.0,29.68,WSW,255,14.0,14.0,22,0.00,,---,0.04,VWS V14.01,2013-04-01 20:25:00,
2013-04-01 16:34:00,56.5,18.1,29.68,WSW,255,14.0,14.0,22,0.00,,---,0.04,VWS V14.01,2013-04-01 20:34:00,
2013-04-01 16:40:00,56.3,18.0,29.71,WSW,255,14.0,14.0,22,0.00,,---,0.04,VWS V14.01,2013-04-01 20:40:00,
2013-04-01 16:45:00,55.0,19.9,29.71,West,272,16.1,16.1,25,0.00,,---,0.04,VWS V14.01,2013-04-01 20:45:00,
2013-04-01 16:51:00,53.6,19.6,29.71,West,272,16.1,16.1,26,0.00,,---,0.04,VWS V14.01,2013-04-01 20:51:00,
2013-04-01 16:56:00,53.1,19.1,29.71,West,272,16.1,16.1,26,0.00,,---,0.04,VWS V14.01,2013-04-01 20:56:00,
2013-04-01 17:01:00,52.7,19.7,29.71,West,272,16.1,16.1,27,0.00,,---,0.04,VWS V14.01,2013-04-01 21:01:00,
2013-04-01 17:06:00,52.0,20.7,29.71,West,272,16.1,16.1,29,0.00,,---,0.04,VWS V14.01,2013-04-01 21:06:00,
2013-04-01 17:12:00,51.6,22.0,29.74,West,272,16.1,16.1,31,0.00,,---,0.04,VWS V14.01,2013-04-01 21:12:00,
2013-04-01 17:17:00,50.2,21.5,29.74,West,272,16.1,16.1,32,0.00,,---,0.04,VWS V14.01,2013-04-01 21:17:00,
2013-04-01 17:26:00,49.3,23.5,29.74,West,272,16.1,16.1,36,0.00,,---,0.04,VWS V14.01,2013-04-01 21:26:00,
2013-04-01 17:33:00,48.6,23.5,29.74,West,272,16.1,16.1,37,0.00,,---,0.04,VWS V14.01,2013-04-01 21:33:00,
2013-04-01 17:38:00,48.6,23.5,29.74,West,272,16.1,16.1,37,0.00,,---,0.04,VWS V14.01,2013-04-01 21:38:00,
2013-04-01 17:44:00,48.6,23.5,29.74,West,272,16.1,16.1,37,0.00,,---,0.04,VWS V14.01,2013-04-01 21:44:00,
2013-04-01 17:50:00,48.6,23.5,29.74,West,272,16.1,16.1,37,0.00,,---,0.04,VWS V14.01,2013-04-01 21:50:00,
2013-04-01 17:55:00,48.6,23.5,29.74,West,272,16.1,16.1,37,0.00,,---,0.04,VWS V14.01,2013-04-01 21:55:00,
2013-04-01 18:01:00,48.6,23.5,29.74,West,272,16.1,16.1,37,0.00,,---,0.04,VWS V14.01,2013-04-01 22:01:00,
2013-04-01 18:07:00,48.6,23.5,29.77,NW,316,0.0,0.0,37,0.00,,---,0.04,VWS V14.01,2013-04-01 22:07:00,
2013-04-01 18:12:00,48.2,24.4,29.77,NW,316,0.0,0.0,39,0.00,,---,0.04,VWS V14.01,2013-04-01 22:12:00,
2013-04-01 18:17:00,48.2,24.4,29.77,NW,308,7.9,7.9,39,0.00,,---,0.04,VWS V14.01,2013-04-01 22:17:00,
2013-04-01 18:22:00,48.2,24.4,29.74,NNW,340,8.6,8.6,39,0.00,,---,0.04,VWS V14.01,2013-04-01 22:22:00,
2013-04-01 18:27:00,48.2,24.4,29.74,West,268,5.7,8.6,39,0.00,,---,0.04,VWS V14.01,2013-04-01 22:27:00,
2013-04-01 18:33:00,48.2,24.4,29.74,West,268,5.7,5.7,39,0.00,,---,0.04,VWS V14.01,2013-04-01 22:33:00,
2013-04-01 18:39:00,48.2,24.4,29.77,West,268,7.2,7.2,39,0.00,,---,0.04,VWS V14.01,2013-04-01 22:39:00,
2013-04-01 18:44:00,48.2,24.4,29.77,West,274,6.4,6.4,39,0.00,,---,0.04,VWS V14.01,2013-04-01 22:44:00,
2013-04-01 18:50:00,49.1,24.0,29.77,West,269,10.7,10.7,37,0.00,,---,0.04,VWS V14.01,2013-04-01 22:50:00,
2013-04-01 18:55:00,49.1,24.0,29.77,West,269,10.7,10.7,37,0.00,,---,0.04,VWS V14.01,2013-04-01 22:55:00,
2013-04-01 19:00:00,49.1,24.0,29.77,West,269,10.7,10.7,37,0.00,,---,0.04,VWS V14.01,2013-04-01 23:00:00,
2013-04-01 19:05:00,49.1,24.0,29.77,West,276,0.0,0.0,37,0.00,,---,0.04,VWS V14.01,2013-04-01 23:05:00,